sensor_id;sensor_type;location;lat;lon;timestamp;pressure;altitude;pressure_sealevel;temperature;humidity
60019;BME280;45870;42.528;26.740;2022-10-26T00:00:03;99855.94;;;20.13;39.68
60019;BME280;45870;42.528;26.740;2022-10-26T00:02:29;99865.09;;;20.04;39.53
60019;BME280;45870;42.528;26.740;2022-10-26T00:04:55;99867.25;;;20.07;39.73
60019;BME280;45870;42.528;26.740;2022-10-26T00:07:21;99864.13;;;19.94;40.43
60019;BME280;45870;42.528;26.740;2022-10-26T00:09:46;99862.47;;;20.17;40.12
60019;BME280;45870;42.528;26.740;2022-10-26T00:12:12;99861.84;;;20.02;40.18
60019;BME280;45870;42.528;26.740;2022-10-26T00:14:38;99859.22;;;19.91;39.86
60019;BME280;45870;42.528;26.740;2022-10-26T00:17:03;99801.41;;;19.46;40.30
60019;BME280;45870;42.528;26.740;2022-10-26T00:19:32;99845.28;;;19.88;40.07
60019;BME280;45870;42.528;26.740;2022-10-26T00:21:57;99864.00;;;20.05;40.05
60019;BME280;45870;42.528;26.740;2022-10-26T00:24:23;99842.69;;;20.02;39.72
60019;BME280;45870;42.528;26.740;2022-10-26T00:26:49;99863.75;;;19.77;40.26
60019;BME280;45870;42.528;26.740;2022-10-26T00:29:14;99865.84;;;19.85;40.14
60019;BME280;45870;42.528;26.740;2022-10-26T00:31:43;99865.63;;;19.82;40.59
60019;BME280;45870;42.528;26.740;2022-10-26T00:34:10;99857.75;;;19.75;40.39
60019;BME280;45870;42.528;26.740;2022-10-26T00:36:36;99862.38;;;19.80;40.65
60019;BME280;45870;42.528;26.740;2022-10-26T00:39:03;99775.13;;;19.44;40.42
60019;BME280;45870;42.528;26.740;2022-10-26T00:41:31;99861.03;;;20.01;40.12
60019;BME280;45870;42.528;26.740;2022-10-26T00:43:57;99856.31;;;20.07;39.88
60019;BME280;45870;42.528;26.740;2022-10-26T00:46:31;99744.63;;;19.27;40.42
60019;BME280;45870;42.528;26.740;2022-10-26T00:49:05;99868.31;;;19.87;40.28
60019;BME280;45870;42.528;26.740;2022-10-26T00:51:37;99864.97;;;20.14;40.14
60019;BME280;45870;42.528;26.740;2022-10-26T00:54:10;99860.50;;;20.23;40.03
60019;BME280;45870;42.528;26.740;2022-10-26T00:56:38;99853.69;;;19.97;40.30
60019;BME280;45870;42.528;26.740;2022-10-26T00:59:08;99862.13;;;20.00;39.53
60019;BME280;45870;42.528;26.740;2022-10-26T01:01:37;99855.72;;;19.86;39.86
60019;BME280;45870;42.528;26.740;2022-10-26T01:04:04;99862.97;;;19.77;39.83
60019;BME280;45870;42.528;26.740;2022-10-26T01:06:31;99801.78;;;19.63;39.01
60019;BME280;45870;42.528;26.740;2022-10-26T01:08:58;99831.06;;;19.00;40.93
60019;BME280;45870;42.528;26.740;2022-10-26T01:11:24;99875.38;;;19.93;39.07
60019;BME280;45870;42.528;26.740;2022-10-26T01:13:51;99857.13;;;20.07;38.54
60019;BME280;45870;42.528;26.740;2022-10-26T01:16:49;99685.91;;;18.91;38.81
60019;BME280;45870;42.528;26.740;2022-10-26T01:19:54;99883.69;;;19.83;40.09
60019;BME280;45870;42.528;26.740;2022-10-26T01:22:40;99877.16;;;20.03;38.95
60019;BME280;45870;42.528;26.740;2022-10-26T01:25:34;99879.56;;;20.09;38.72
60019;BME280;45870;42.528;26.740;2022-10-26T01:28:15;99877.00;;;19.94;39.37
60019;BME280;45870;42.528;26.740;2022-10-26T01:30:45;99871.78;;;19.69;39.99
60019;BME280;45870;42.528;26.740;2022-10-26T01:33:25;99889.69;;;19.85;40.39
60019;BME280;45870;42.528;26.740;2022-10-26T01:38:42;99884.63;;;20.21;40.66
60019;BME280;45870;42.528;26.740;2022-10-26T01:43:54;99892.91;;;19.92;40.91
60019;BME280;45870;42.528;26.740;2022-10-26T01:46:23;99897.81;;;19.95;40.75
60019;BME280;45870;42.528;26.740;2022-10-26T01:48:54;99867.38;;;19.73;40.66
60019;BME280;45870;42.528;26.740;2022-10-26T01:51:21;99903.81;;;19.97;40.67
60019;BME280;45870;42.528;26.740;2022-10-26T01:53:48;99866.34;;;19.64;40.68
60019;BME280;45870;42.528;26.740;2022-10-26T01:56:20;99905.72;;;19.73;41.08
60019;BME280;45870;42.528;26.740;2022-10-26T02:12:39;99750.44;;;18.58;41.51
60019;BME280;45870;42.528;26.740;2022-10-26T02:15:16;99855.50;;;18.86;41.55
60019;BME280;45870;42.528;26.740;2022-10-26T02:18:03;99887.94;;;19.41;40.65
60019;BME280;45870;42.528;26.740;2022-10-26T02:20:33;99883.53;;;19.40;41.47
60019;BME280;45870;42.528;26.740;2022-10-26T02:23:03;99883.22;;;19.47;41.67
60019;BME280;45870;42.528;26.740;2022-10-26T02:25:33;99875.94;;;19.32;41.83
60019;BME280;45870;42.528;26.740;2022-10-26T02:28:09;99882.78;;;19.35;42.27
60019;BME280;45870;42.528;26.740;2022-10-26T02:30:38;99732.69;;;17.58;44.05
60019;BME280;45870;42.528;26.740;2022-10-26T02:33:06;99909.19;;;18.72;43.68
60019;BME280;45870;42.528;26.740;2022-10-26T02:35:36;99907.63;;;19.05;42.68
60019;BME280;45870;42.528;26.740;2022-10-26T02:38:07;99912.50;;;20.04;40.53
60019;BME280;45870;42.528;26.740;2022-10-26T02:40:35;99915.59;;;20.21;40.08
60019;BME280;45870;42.528;26.740;2022-10-26T02:43:09;99908.94;;;20.04;40.47
60019;BME280;45870;42.528;26.740;2022-10-26T02:45:42;99781.34;;;19.21;39.81
60019;BME280;45870;42.528;26.740;2022-10-26T02:48:08;99916.91;;;20.05;40.46
60019;BME280;45870;42.528;26.740;2022-10-26T02:50:56;99918.69;;;19.62;40.66
60019;BME280;45870;42.528;26.740;2022-10-26T02:55:54;99919.06;;;19.51;40.99
60019;BME280;45870;42.528;26.740;2022-10-26T02:58:25;99938.44;;;17.77;44.99
60019;BME280;45870;42.528;26.740;2022-10-26T03:00:53;99952.66;;;18.78;42.27
60019;BME280;45870;42.528;26.740;2022-10-26T03:03:19;99943.28;;;18.89;43.53
60019;BME280;45870;42.528;26.740;2022-10-26T03:05:45;99944.47;;;18.68;42.92
60019;BME280;45870;42.528;26.740;2022-10-26T03:08:11;99962.47;;;17.49;47.48
60019;BME280;45870;42.528;26.740;2022-10-26T03:10:41;99956.22;;;17.64;46.92
60019;BME280;45870;42.528;26.740;2022-10-26T03:13:09;99962.78;;;19.22;43.14
60019;BME280;45870;42.528;26.740;2022-10-26T03:15:35;99958.66;;;19.24;43.49
60019;BME280;45870;42.528;26.740;2022-10-26T03:18:01;99973.00;;;21.03;38.75
60019;BME280;45870;42.528;26.740;2022-10-26T03:20:27;99935.25;;;20.33;39.24
60019;BME280;45870;42.528;26.740;2022-10-26T03:22:52;99983.19;;;20.36;38.79
60019;BME280;45870;42.528;26.740;2022-10-26T03:25:18;99985.81;;;20.17;39.19
60019;BME280;45870;42.528;26.740;2022-10-26T03:27:44;99981.41;;;19.15;41.51
60019;BME280;45870;42.528;26.740;2022-10-26T03:30:10;99953.38;;;19.38;41.44
60019;BME280;45870;42.528;26.740;2022-10-26T03:32:37;99991.56;;;19.58;40.62
60019;BME280;45870;42.528;26.740;2022-10-26T03:35:03;99985.84;;;19.55;41.01
60019;BME280;45870;42.528;26.740;2022-10-26T03:37:28;99994.28;;;19.58;41.28
60019;BME280;45870;42.528;26.740;2022-10-26T03:39:54;99998.56;;;19.30;41.40
60019;BME280;45870;42.528;26.740;2022-10-26T03:42:20;99971.28;;;19.20;41.94
60019;BME280;45870;42.528;26.740;2022-10-26T03:44:45;99999.31;;;18.03;44.01
60019;BME280;45870;42.528;26.740;2022-10-26T03:47:13;99934.75;;;18.37;43.12
60019;BME280;45870;42.528;26.740;2022-10-26T03:49:38;99956.19;;;18.79;42.71
60019;BME280;45870;42.528;26.740;2022-10-26T03:52:04;99992.03;;;18.77;42.60
60019;BME280;45870;42.528;26.740;2022-10-26T03:54:30;99934.22;;;18.94;42.61
60019;BME280;45870;42.528;26.740;2022-10-26T03:56:55;99988.72;;;19.68;41.72
60019;BME280;45870;42.528;26.740;2022-10-26T03:59:22;99990.50;;;19.05;43.82
60019;BME280;45870;42.528;26.740;2022-10-26T04:01:47;100004.81;;;20.37;40.02
60019;BME280;45870;42.528;26.740;2022-10-26T04:04:13;99981.34;;;18.81;44.74
60019;BME280;45870;42.528;26.740;2022-10-26T04:06:39;99982.34;;;19.78;43.30
60019;BME280;45870;42.528;26.740;2022-10-26T04:09:04;100008.59;;;20.89;40.82
60019;BME280;45870;42.528;26.740;2022-10-26T04:11:33;100003.81;;;21.56;39.56
60019;BME280;45870;42.528;26.740;2022-10-26T04:13:58;100003.56;;;23.04;36.43
60019;BME280;45870;42.528;26.740;2022-10-26T04:16:25;99996.84;;;21.96;38.04
60019;BME280;45870;42.528;26.740;2022-10-26T04:18:51;100011.78;;;22.35;37.41
60019;BME280;45870;42.528;26.740;2022-10-26T04:21:17;100024.97;;;22.66;36.58
60019;BME280;45870;42.528;26.740;2022-10-26T04:23:43;100029.56;;;21.60;38.65
60019;BME280;45870;42.528;26.740;2022-10-26T04:26:08;100013.72;;;22.21;37.21
60019;BME280;45870;42.528;26.740;2022-10-26T04:28:34;99974.16;;;21.20;39.05
60019;BME280;45870;42.528;26.740;2022-10-26T04:31:01;100027.34;;;21.62;38.80
60019;BME280;45870;42.528;26.740;2022-10-26T04:33:26;100012.19;;;21.64;38.75
60019;BME280;45870;42.528;26.740;2022-10-26T04:35:57;99982.97;;;22.19;37.25
60019;BME280;45870;42.528;26.740;2022-10-26T04:38:24;100028.47;;;22.71;36.71
60019;BME280;45870;42.528;26.740;2022-10-26T04:40:50;100035.69;;;21.89;38.30
60019;BME280;45870;42.528;26.740;2022-10-26T04:43:15;100022.22;;;21.55;39.22
60019;BME280;45870;42.528;26.740;2022-10-26T04:45:41;100047.94;;;21.03;40.47
60019;BME280;45870;42.528;26.740;2022-10-26T04:48:09;100059.84;;;21.55;39.72
60019;BME280;45870;42.528;26.740;2022-10-26T04:50:36;100060.34;;;21.19;40.66
60019;BME280;45870;42.528;26.740;2022-10-26T04:53:04;100032.09;;;21.19;40.25
60019;BME280;45870;42.528;26.740;2022-10-26T04:55:30;99983.69;;;21.60;38.54
60019;BME280;45870;42.528;26.740;2022-10-26T04:57:56;100057.81;;;22.89;36.90
60019;BME280;45870;42.528;26.740;2022-10-26T05:00:22;100054.59;;;23.23;36.37
60019;BME280;45870;42.528;26.740;2022-10-26T05:02:47;100073.41;;;22.80;37.14
60019;BME280;45870;42.528;26.740;2022-10-26T05:05:14;100072.53;;;22.07;38.80
60019;BME280;45870;42.528;26.740;2022-10-26T05:07:40;100073.47;;;21.46;40.46
60019;BME280;45870;42.528;26.740;2022-10-26T05:10:06;100076.25;;;21.78;39.99
60019;BME280;45870;42.528;26.740;2022-10-26T05:12:33;100070.69;;;21.83;39.47
60019;BME280;45870;42.528;26.740;2022-10-26T05:14:58;100016.00;;;22.87;37.19
60019;BME280;45870;42.528;26.740;2022-10-26T05:17:25;100079.63;;;23.99;35.42
60019;BME280;45870;42.528;26.740;2022-10-26T05:19:52;99972.72;;;23.15;35.69
60019;BME280;45870;42.528;26.740;2022-10-26T05:22:23;100090.81;;;23.44;35.30
60019;BME280;45870;42.528;26.740;2022-10-26T05:24:49;100096.44;;;22.71;35.81
60019;BME280;45870;42.528;26.740;2022-10-26T05:27:15;99940.72;;;21.51;35.50
60019;BME280;45870;42.528;26.740;2022-10-26T05:29:41;100106.78;;;21.16;39.00
60019;BME280;45870;42.528;26.740;2022-10-26T05:32:07;100116.03;;;22.51;36.59
60019;BME280;45870;42.528;26.740;2022-10-26T05:34:33;100114.38;;;22.82;35.96
60019;BME280;45870;42.528;26.740;2022-10-26T05:36:58;100111.63;;;22.82;36.21
60019;BME280;45870;42.528;26.740;2022-10-26T05:39:24;100110.91;;;23.31;35.77
60019;BME280;45870;42.528;26.740;2022-10-26T05:41:50;100119.28;;;24.11;34.43
60019;BME280;45870;42.528;26.740;2022-10-26T05:44:15;100079.41;;;24.40;33.34
60019;BME280;45870;42.528;26.740;2022-10-26T05:46:41;100118.69;;;24.36;34.63
60019;BME280;45870;42.528;26.740;2022-10-26T05:49:07;100127.84;;;23.52;36.38
60019;BME280;45870;42.528;26.740;2022-10-26T05:51:34;100081.75;;;23.16;36.66
60019;BME280;45870;42.528;26.740;2022-10-26T05:54:02;100049.28;;;23.27;35.93
60019;BME280;45870;42.528;26.740;2022-10-26T05:58:59;100136.41;;;24.97;34.22
60019;BME280;45870;42.528;26.740;2022-10-26T06:04:34;100128.13;;;22.36;38.60
60019;BME280;45870;42.528;26.740;2022-10-26T06:07:08;100104.66;;;22.25;38.93
60019;BME280;45870;42.528;26.740;2022-10-26T06:09:36;99952.97;;;21.39;38.70
60019;BME280;45870;42.528;26.740;2022-10-26T06:12:02;100090.22;;;22.01;39.27
60019;BME280;45870;42.528;26.740;2022-10-26T06:14:28;100132.44;;;23.29;37.47
60019;BME280;45870;42.528;26.740;2022-10-26T06:17:10;100138.59;;;24.11;35.51
60019;BME280;45870;42.528;26.740;2022-10-26T06:30:44;100164.97;;;24.93;34.19
60019;BME280;45870;42.528;26.740;2022-10-26T06:33:11;100156.69;;;24.93;34.07
60019;BME280;45870;42.528;26.740;2022-10-26T06:38:16;100187.44;;;25.39;33.32
60019;BME280;45870;42.528;26.740;2022-10-26T06:40:48;100187.19;;;25.18;33.70
60019;BME280;45870;42.528;26.740;2022-10-26T06:43:33;100117.56;;;25.47;33.06
60019;BME280;45870;42.528;26.740;2022-10-26T06:48:48;100152.97;;;25.45;32.83
60019;BME280;45870;42.528;26.740;2022-10-26T06:51:17;100191.00;;;26.05;32.01
60019;BME280;45870;42.528;26.740;2022-10-26T06:53:55;100189.22;;;26.69;30.86
60019;BME280;45870;42.528;26.740;2022-10-26T06:56:22;100181.03;;;26.81;30.47
60019;BME280;45870;42.528;26.740;2022-10-26T06:58:51;100171.41;;;25.58;32.98
60019;BME280;45870;42.528;26.740;2022-10-26T07:01:18;100194.44;;;26.53;31.83
60019;BME280;45870;42.528;26.740;2022-10-26T07:03:43;100195.78;;;27.11;30.49
60019;BME280;45870;42.528;26.740;2022-10-26T07:06:10;100187.56;;;26.85;31.24
60019;BME280;45870;42.528;26.740;2022-10-26T07:08:35;100186.75;;;27.31;29.84
60019;BME280;45870;42.528;26.740;2022-10-26T07:11:01;100185.75;;;27.36;29.58
60019;BME280;45870;42.528;26.740;2022-10-26T07:13:28;100158.78;;;27.15;30.23
60019;BME280;45870;42.528;26.740;2022-10-26T07:15:54;100173.19;;;27.00;30.81
60019;BME280;45870;42.528;26.740;2022-10-26T07:18:20;100175.69;;;26.67;30.74
60019;BME280;45870;42.528;26.740;2022-10-26T07:20:46;100173.28;;;25.41;32.99
60019;BME280;45870;42.528;26.740;2022-10-26T07:23:12;100181.56;;;26.66;30.87
60019;BME280;45870;42.528;26.740;2022-10-26T07:25:40;100187.50;;;27.02;30.60
60019;BME280;45870;42.528;26.740;2022-10-26T07:28:07;100179.13;;;28.28;28.72
60019;BME280;45870;42.528;26.740;2022-10-26T07:30:35;100140.81;;;28.21;28.59
60019;BME280;45870;42.528;26.740;2022-10-26T07:33:08;100173.13;;;28.59;28.35
60019;BME280;45870;42.528;26.740;2022-10-26T07:35:35;100189.13;;;27.03;30.44
60019;BME280;45870;42.528;26.740;2022-10-26T07:38:01;100184.56;;;27.07;30.83
60019;BME280;45870;42.528;26.740;2022-10-26T07:40:28;100179.41;;;25.60;33.71
60019;BME280;45870;42.528;26.740;2022-10-26T07:42:57;100185.78;;;25.95;32.94
60019;BME280;45870;42.528;26.740;2022-10-26T07:45:24;100176.28;;;25.53;33.64
60019;BME280;45870;42.528;26.740;2022-10-26T07:47:50;100189.75;;;25.06;34.64
60019;BME280;45870;42.528;26.740;2022-10-26T07:50:16;100186.94;;;26.54;31.80
60019;BME280;45870;42.528;26.740;2022-10-26T07:52:42;100183.56;;;26.31;32.71
60019;BME280;45870;42.528;26.740;2022-10-26T07:55:08;100184.53;;;26.18;32.43
60019;BME280;45870;42.528;26.740;2022-10-26T07:57:35;100194.09;;;26.72;31.69
60019;BME280;45870;42.528;26.740;2022-10-26T08:00:01;100186.16;;;28.05;29.82
60019;BME280;45870;42.528;26.740;2022-10-26T08:02:26;100195.56;;;26.01;33.17
60019;BME280;45870;42.528;26.740;2022-10-26T08:04:52;100031.06;;;25.90;31.32
60019;BME280;45870;42.528;26.740;2022-10-26T08:07:18;100196.91;;;27.18;30.83
60019;BME280;45870;42.528;26.740;2022-10-26T08:09:44;100184.84;;;26.16;32.53
60019;BME280;45870;42.528;26.740;2022-10-26T08:12:10;100188.44;;;26.34;32.08
60019;BME280;45870;42.528;26.740;2022-10-26T08:14:37;100187.66;;;28.23;29.02
60019;BME280;45870;42.528;26.740;2022-10-26T08:17:03;100179.31;;;27.52;30.24
60019;BME280;45870;42.528;26.740;2022-10-26T08:19:29;100201.09;;;26.69;31.48
60019;BME280;45870;42.528;26.740;2022-10-26T08:21:56;100199.16;;;26.36;31.94
60019;BME280;45870;42.528;26.740;2022-10-26T08:24:21;100102.53;;;26.77;30.56
60019;BME280;45870;42.528;26.740;2022-10-26T08:26:47;100192.38;;;27.52;30.46
60019;BME280;45870;42.528;26.740;2022-10-26T08:29:13;100191.13;;;27.70;30.01
60019;BME280;45870;42.528;26.740;2022-10-26T08:31:38;100194.53;;;27.38;30.49
60019;BME280;45870;42.528;26.740;2022-10-26T08:34:04;100190.44;;;27.73;29.39
60019;BME280;45870;42.528;26.740;2022-10-26T08:36:30;100195.94;;;27.14;30.34
60019;BME280;45870;42.528;26.740;2022-10-26T08:38:56;100202.25;;;26.60;31.41
60019;BME280;45870;42.528;26.740;2022-10-26T08:44:07;100197.56;;;27.62;29.45
60019;BME280;45870;42.528;26.740;2022-10-26T08:46:39;100146.00;;;26.94;30.22
60019;BME280;45870;42.528;26.740;2022-10-26T08:49:31;100165.69;;;26.92;30.15
60019;BME280;45870;42.528;26.740;2022-10-26T08:52:02;100212.03;;;26.66;30.88
60019;BME280;45870;42.528;26.740;2022-10-26T08:56:58;100205.41;;;28.84;28.07
60019;BME280;45870;42.528;26.740;2022-10-26T08:59:41;100127.81;;;26.58;30.80
60019;BME280;45870;42.528;26.740;2022-10-26T09:02:13;100203.19;;;27.74;29.75
60019;BME280;45870;42.528;26.740;2022-10-26T09:04:39;100202.97;;;28.08;29.20
60019;BME280;45870;42.528;26.740;2022-10-26T09:13:01;100213.41;;;29.31;27.62
60019;BME280;45870;42.528;26.740;2022-10-26T09:15:53;100200.22;;;30.28;25.34
60019;BME280;45870;42.528;26.740;2022-10-26T09:18:30;100214.56;;;29.30;27.01
60019;BME280;45870;42.528;26.740;2022-10-26T09:21:02;100209.09;;;27.93;29.04
60019;BME280;45870;42.528;26.740;2022-10-26T09:26:26;100208.03;;;28.48;28.75
60019;BME280;45870;42.528;26.740;2022-10-26T09:28:55;100212.59;;;29.42;27.33
60019;BME280;45870;42.528;26.740;2022-10-26T09:31:23;100204.69;;;29.20;27.60
60019;BME280;45870;42.528;26.740;2022-10-26T09:33:50;100102.53;;;29.93;25.55
60019;BME280;45870;42.528;26.740;2022-10-26T09:36:21;100205.72;;;29.15;27.26
60019;BME280;45870;42.528;26.740;2022-10-26T09:38:56;100133.03;;;29.77;26.32
60019;BME280;45870;42.528;26.740;2022-10-26T09:41:30;100206.59;;;28.95;27.76
60019;BME280;45870;42.528;26.740;2022-10-26T09:44:07;100195.00;;;27.98;28.74
60019;BME280;45870;42.528;26.740;2022-10-26T09:50:02;100196.78;;;27.53;29.36
60019;BME280;45870;42.528;26.740;2022-10-26T09:52:30;100202.91;;;29.03;27.39
60019;BME280;45870;42.528;26.740;2022-10-26T09:54:55;100185.88;;;29.05;27.27
60019;BME280;45870;42.528;26.740;2022-10-26T09:57:22;100197.94;;;28.43;28.37
60019;BME280;45870;42.528;26.740;2022-10-26T09:59:49;100199.69;;;30.10;25.94
60019;BME280;45870;42.528;26.740;2022-10-26T10:02:37;100202.06;;;27.96;29.04
60019;BME280;45870;42.528;26.740;2022-10-26T10:05:30;100201.25;;;28.90;26.89
60019;BME280;45870;42.528;26.740;2022-10-26T10:13:25;100188.50;;;28.89;27.16
60019;BME280;45870;42.528;26.740;2022-10-26T10:16:00;100193.72;;;29.48;26.68
60019;BME280;45870;42.528;26.740;2022-10-26T10:18:27;100192.75;;;29.19;26.80
60019;BME280;45870;42.528;26.740;2022-10-26T10:20:55;100106.28;;;28.31;27.57
60019;BME280;45870;42.528;26.740;2022-10-26T10:23:29;100173.38;;;30.36;25.76
60019;BME280;45870;42.528;26.740;2022-10-26T10:26:03;100176.47;;;30.18;25.34
60019;BME280;45870;42.528;26.740;2022-10-26T10:28:29;100186.19;;;30.24;25.26
60019;BME280;45870;42.528;26.740;2022-10-26T10:31:01;100114.22;;;28.20;27.84
60019;BME280;45870;42.528;26.740;2022-10-26T10:33:40;100192.09;;;28.90;27.65
60019;BME280;45870;42.528;26.740;2022-10-26T10:36:14;100186.41;;;30.19;25.51
60019;BME280;45870;42.528;26.740;2022-10-26T10:38:43;100184.78;;;29.42;26.44
60019;BME280;45870;42.528;26.740;2022-10-26T10:41:22;100183.88;;;28.81;27.25
60019;BME280;45870;42.528;26.740;2022-10-26T10:46:33;100144.22;;;29.29;26.57
60019;BME280;45870;42.528;26.740;2022-10-26T10:49:05;100173.78;;;30.22;25.44
60019;BME280;45870;42.528;26.740;2022-10-26T10:51:38;100168.06;;;29.91;25.55
60019;BME280;45870;42.528;26.740;2022-10-26T10:54:06;100168.16;;;29.82;25.63
60019;BME280;45870;42.528;26.740;2022-10-26T10:56:46;100161.09;;;29.00;27.09
60019;BME280;45870;42.528;26.740;2022-10-26T11:07:43;100143.56;;;28.75;26.60
60019;BME280;45870;42.528;26.740;2022-10-26T11:10:14;100143.88;;;29.55;25.20
60019;BME280;45870;42.528;26.740;2022-10-26T11:12:48;100134.50;;;30.11;24.43
60019;BME280;45870;42.528;26.740;2022-10-26T11:15:20;100119.47;;;30.71;24.00
60019;BME280;45870;42.528;26.740;2022-10-26T11:20:31;100127.19;;;30.07;24.28
60019;BME280;45870;42.528;26.740;2022-10-26T11:23:03;100156.19;;;30.34;24.98
60019;BME280;45870;42.528;26.740;2022-10-26T11:25:43;100113.50;;;29.25;25.47
60019;BME280;45870;42.528;26.740;2022-10-26T11:31:06;100147.06;;;29.20;25.73
60019;BME280;45870;42.528;26.740;2022-10-26T11:33:58;100149.53;;;29.46;25.64
60019;BME280;45870;42.528;26.740;2022-10-26T11:36:27;100152.53;;;29.05;26.28
60019;BME280;45870;42.528;26.740;2022-10-26T11:39:05;100142.59;;;30.88;23.79
60019;BME280;45870;42.528;26.740;2022-10-26T11:41:44;100146.66;;;31.06;23.59
60019;BME280;45870;42.528;26.740;2022-10-26T11:44:26;100144.41;;;28.88;26.14
60019;BME280;45870;42.528;26.740;2022-10-26T11:46:57;100093.56;;;30.55;24.14
60019;BME280;45870;42.528;26.740;2022-10-26T11:52:25;100139.94;;;32.69;21.28
60019;BME280;45870;42.528;26.740;2022-10-26T11:54:55;100004.59;;;29.36;23.65
60019;BME280;45870;42.528;26.740;2022-10-26T11:57:24;100136.78;;;30.65;23.29
60019;BME280;45870;42.528;26.740;2022-10-26T11:59:53;100142.34;;;29.09;25.21
60019;BME280;45870;42.528;26.740;2022-10-26T12:02:24;100142.44;;;30.25;24.25
60019;BME280;45870;42.528;26.740;2022-10-26T12:07:45;100133.72;;;30.27;23.89
60019;BME280;45870;42.528;26.740;2022-10-26T12:10:32;100148.13;;;30.72;23.56
60019;BME280;45870;42.528;26.740;2022-10-26T12:15:46;100145.44;;;30.32;23.79
60019;BME280;45870;42.528;26.740;2022-10-26T12:20:59;100141.03;;;30.90;22.79
60019;BME280;45870;42.528;26.740;2022-10-26T12:23:33;100149.41;;;30.75;23.02
60019;BME280;45870;42.528;26.740;2022-10-26T12:39:36;100137.41;;;28.37;25.96
60019;BME280;45870;42.528;26.740;2022-10-26T12:44:59;100135.53;;;30.62;23.14
60019;BME280;45870;42.528;26.740;2022-10-26T12:50:17;100139.19;;;29.83;23.81
60019;BME280;45870;42.528;26.740;2022-10-26T12:52:56;100141.03;;;30.19;23.76
60019;BME280;45870;42.528;26.740;2022-10-26T13:04:02;100142.16;;;30.30;23.48
60019;BME280;45870;42.528;26.740;2022-10-26T13:09:32;100094.44;;;29.76;23.10
60019;BME280;45870;42.528;26.740;2022-10-26T13:12:00;100144.94;;;31.01;22.13
60019;BME280;45870;42.528;26.740;2022-10-26T13:14:39;100140.47;;;32.55;20.53
60019;BME280;45870;42.528;26.740;2022-10-26T13:17:21;100136.22;;;31.18;21.62
60019;BME280;45870;42.528;26.740;2022-10-26T13:19:48;100093.38;;;32.77;19.96
60019;BME280;45870;42.528;26.740;2022-10-26T13:22:20;100089.31;;;31.55;21.22
60019;BME280;45870;42.528;26.740;2022-10-26T13:24:55;100136.25;;;33.56;19.21
60019;BME280;45870;42.528;26.740;2022-10-26T13:27:39;100141.91;;;31.73;20.94
60019;BME280;45870;42.528;26.740;2022-10-26T13:30:16;100139.09;;;32.27;20.76
60019;BME280;45870;42.528;26.740;2022-10-26T13:32:55;100139.81;;;32.04;21.21
60019;BME280;45870;42.528;26.740;2022-10-26T13:35:23;100132.31;;;32.66;19.96
60019;BME280;45870;42.528;26.740;2022-10-26T13:37:50;100135.56;;;34.55;18.25
60019;BME280;45870;42.528;26.740;2022-10-26T13:40:20;100135.44;;;34.78;18.21
60019;BME280;45870;42.528;26.740;2022-10-26T13:42:51;100107.38;;;34.41;18.39
60019;BME280;45870;42.528;26.740;2022-10-26T13:45:20;100149.28;;;32.00;20.52
60019;BME280;45870;42.528;26.740;2022-10-26T13:48:02;100142.06;;;31.29;21.43
60019;BME280;45870;42.528;26.740;2022-10-26T13:50:34;100157.06;;;30.93;22.11
60019;BME280;45870;42.528;26.740;2022-10-26T13:53:07;100148.06;;;30.84;22.54
60019;BME280;45870;42.528;26.740;2022-10-26T14:03:35;100160.75;;;30.26;22.47
60019;BME280;45870;42.528;26.740;2022-10-26T14:06:35;100152.13;;;31.34;21.47
60019;BME280;45870;42.528;26.740;2022-10-26T14:09:04;100167.91;;;30.83;21.75
60019;BME280;45870;42.528;26.740;2022-10-26T14:11:39;100168.88;;;31.02;21.95
60019;BME280;45870;42.528;26.740;2022-10-26T14:14:16;100109.13;;;30.56;22.29
60019;BME280;45870;42.528;26.740;2022-10-26T14:16:43;100110.28;;;29.36;23.48
60019;BME280;45870;42.528;26.740;2022-10-26T14:19:29;100161.59;;;31.29;21.67
60019;BME280;45870;42.528;26.740;2022-10-26T14:21:56;100156.59;;;32.24;20.78
60019;BME280;45870;42.528;26.740;2022-10-26T14:24:27;100111.66;;;31.08;21.23
60019;BME280;45870;42.528;26.740;2022-10-26T14:26:54;100163.19;;;31.61;21.52
60019;BME280;45870;42.528;26.740;2022-10-26T14:29:23;100156.03;;;31.80;21.14
60019;BME280;45870;42.528;26.740;2022-10-26T14:31:50;100169.88;;;31.41;21.75
60019;BME280;45870;42.528;26.740;2022-10-26T14:34:17;100175.06;;;31.43;21.79
60019;BME280;45870;42.528;26.740;2022-10-26T14:36:48;100166.38;;;31.13;22.84
60019;BME280;45870;42.528;26.740;2022-10-26T14:39:37;100169.34;;;31.20;22.30
60019;BME280;45870;42.528;26.740;2022-10-26T14:42:23;100075.94;;;30.08;22.64
60019;BME280;45870;42.528;26.740;2022-10-26T14:44:50;100169.81;;;29.35;25.30
60019;BME280;45870;42.528;26.740;2022-10-26T14:47:28;100172.66;;;28.90;26.07
60019;BME280;45870;42.528;26.740;2022-10-26T14:49:55;100178.19;;;28.03;27.32
60019;BME280;45870;42.528;26.740;2022-10-26T14:52:25;100182.22;;;27.85;27.75
60019;BME280;45870;42.528;26.740;2022-10-26T14:55:01;100165.44;;;27.23;28.53
60019;BME280;45870;42.528;26.740;2022-10-26T14:57:35;100181.03;;;27.36;28.28
60019;BME280;45870;42.528;26.740;2022-10-26T15:00:21;100188.25;;;27.20;28.72
60019;BME280;45870;42.528;26.740;2022-10-26T15:02:55;100173.94;;;26.28;29.64
60019;BME280;45870;42.528;26.740;2022-10-26T15:05:25;100202.59;;;26.41;29.64
60019;BME280;45870;42.528;26.740;2022-10-26T15:07:53;100207.28;;;25.98;29.83
60019;BME280;45870;42.528;26.740;2022-10-26T15:13:10;100207.38;;;25.67;30.46